Time;durP1;ratioP1;P1;durP2;ratioP2;P2;SDS_P1;SDS_P2;PMS_P1;PMS_P2;Temp;Humidity;BMP_temperature;BMP_pressure;BME280_temperature;BME280_humidity;BME280_pressure;Samples;Min_cycle;Max_cycle;Signal;HPM_P1;HPM_P2
2021/08/03 00:02:24;;;;;;;3.45;1.40;;;12.20;93.80;;;;;;5013928;28;20046;-56
2021/08/03 00:04:56;;;;;;;2.53;1.20;;;12.20;93.80;;;;;;5015773;28;20080;-54
2021/08/03 00:07:27;;;;;;;1.50;1.20;;;12.20;93.80;;;;;;5010813;28;20081;-54
2021/08/03 00:09:56;;;;;;;3.30;1.50;;;12.10;93.90;;;;;;4998491;28;20052;-55
2021/08/03 00:12:25;;;;;;;2.67;1.40;;;12.10;93.90;;;;;;5016551;28;20085;-55
2021/08/03 00:14:55;;;;;;;2.65;1.85;;;12.10;94.00;;;;;;5016820;28;20045;-55
2021/08/03 00:17:30;;;;;;;3.35;1.33;;;12.10;94.00;;;;;;4999982;28;20069;-55
2021/08/03 00:19:58;;;;;;;4.63;1.40;;;12.10;94.00;;;;;;5017374;28;20049;-55
2021/08/03 00:22:26;;;;;;;1.98;1.38;;;12.10;94.00;;;;;;5015567;28;20038;-54
2021/08/03 00:24:52;;;;;;;3.90;1.80;;;12.10;94.10;;;;;;4998192;28;20128;-55
2021/08/03 00:27:19;;;;;;;4.22;1.90;;;12.10;94.20;;;;;;5017683;28;20522;-55
2021/08/03 00:29:44;;;;;;;4.85;2.03;;;12.10;94.30;;;;;;5017515;28;20041;-55
2021/08/03 00:32:11;;;;;;;5.10;1.85;;;12.10;94.50;;;;;;5014688;28;20057;-56
2021/08/03 00:34:43;;;;;;;3.05;1.77;;;12.00;94.30;;;;;;5012391;28;20376;-54
2021/08/03 00:37:09;;;;;;;4.38;2.03;;;12.00;94.40;;;;;;5009056;28;20042;-54
2021/08/03 00:39:36;;;;;;;3.22;1.50;;;12.00;94.30;;;;;;5013593;28;20041;-54
2021/08/03 00:42:04;;;;;;;4.63;1.50;;;12.00;94.30;;;;;;5007838;28;20041;-53
2021/08/03 00:44:50;;;;;;;2.78;1.75;;;12.00;94.30;;;;;;5017925;28;20037;-55
2021/08/03 00:47:17;;;;;;;2.17;1.60;;;11.90;94.50;;;;;;5009147;28;20053;-55
2021/08/03 00:49:43;;;;;;;3.10;1.60;;;12.00;94.40;;;;;;5017243;28;20084;-55
2021/08/03 00:52:11;;;;;;;1.60;1.40;;;11.90;94.40;;;;;;5017968;28;20041;-55
2021/08/03 00:54:38;;;;;;;1.80;1.40;;;11.90;94.40;;;;;;5016012;28;20490;-53
2021/08/03 00:57:09;;;;;;;2.15;1.25;;;11.80;94.40;;;;;;4997557;28;20034;-53
2021/08/03 00:59:35;;;;;;;3.55;1.50;;;11.80;94.40;;;;;;5015556;28;20049;-54
2021/08/03 01:02:06;;;;;;;1.83;1.40;;;11.80;94.30;;;;;;5014426;28;20038;-55
2021/08/03 01:04:32;;;;;;;2.35;1.60;;;11.70;94.30;;;;;;5014684;28;20068;-54
2021/08/03 01:07:17;;;;;;;2.65;1.35;;;11.70;94.30;;;;;;5014860;28;20410;-55
2021/08/03 01:10:10;;;;;;;1.90;1.33;;;11.70;94.30;;;;;;5016050;28;20433;-53
2021/08/03 01:12:55;;;;;;;1.45;1.20;;;11.60;94.20;;;;;;5003326;28;20045;-54
2021/08/03 01:15:40;;;;;;;2.53;1.40;;;11.60;94.20;;;;;;5013674;28;20620;-54
2021/08/03 01:18:19;;;;;;;5.50;1.85;;;11.60;94.20;;;;;;4986636;28;20088;-55
2021/08/03 01:21:14;;;;;;;4.20;1.50;;;11.60;94.30;;;;;;5013981;28;20048;-54
2021/08/03 01:23:55;;;;;;;1.17;1.08;;;11.60;94.40;;;;;;5014891;28;20107;-54
2021/08/03 01:26:25;;;;;;;1.77;1.40;;;11.50;94.50;;;;;;5013415;28;20105;-54
2021/08/03 01:29:01;;;;;;;5.38;1.70;;;11.50;94.40;;;;;;5013524;28;20042;-53
2021/08/03 01:31:33;;;;;;;4.53;2.00;;;11.50;94.40;;;;;;4995963;28;20056;-54
2021/08/03 01:34:11;;;;;;;4.22;1.50;;;11.40;94.40;;;;;;4997384;28;20078;-53
2021/08/03 01:36:40;;;;;;;2.63;1.50;;;11.40;94.50;;;;;;4986903;28;20085;-54
2021/08/03 01:39:07;;;;;;;3.05;1.60;;;11.40;94.60;;;;;;5014793;28;20064;-54
2021/08/03 01:41:34;;;;;;;2.17;1.33;;;11.40;94.60;;;;;;5012976;28;20463;-55
2021/08/03 01:44:04;;;;;;;5.03;1.77;;;11.40;94.60;;;;;;4998585;28;20061;-54
2021/08/03 01:46:35;;;;;;;2.45;1.70;;;11.40;94.60;;;;;;5008462;28;20074;-54
2021/08/03 01:49:02;;;;;;;2.33;1.73;;;11.30;94.60;;;;;;5008541;28;20044;-54
2021/08/03 01:51:29;;;;;;;5.07;2.17;;;11.30;94.80;;;;;;5013255;28;20041;-54
2021/08/03 01:53:56;;;;;;;6.32;2.30;;;11.30;94.90;;;;;;5012630;28;20034;-55
2021/08/03 01:56:24;;;;;;;5.63;1.80;;;11.30;95.00;;;;;;5010857;28;20084;-54
2021/08/03 01:58:51;;;;;;;4.20;1.83;;;11.30;95.10;;;;;;5004806;28;20045;-55
2021/08/03 02:01:20;;;;;;;3.22;1.83;;;11.30;95.10;;;;;;5013772;28;20049;-54
2021/08/03 02:03:48;;;;;;;3.22;1.80;;;11.20;95.10;;;;;;5014253;28;20045;-54
2021/08/03 02:06:15;;;;;;;3.05;1.73;;;11.20;95.20;;;;;;5011890;28;20053;-55
2021/08/03 02:08:46;;;;;;;3.65;2.15;;;11.20;95.30;;;;;;5015038;28;20132;-54
2021/08/03 02:11:12;;;;;;;5.18;2.30;;;11.20;95.30;;;;;;4995876;28;20510;-54
2021/08/03 02:13:46;;;;;;;3.75;1.95;;;11.20;95.40;;;;;;5014808;28;21972;-54
2021/08/03 02:16:12;;;;;;;5.03;1.95;;;11.20;95.40;;;;;;5011799;28;20057;-54
2021/08/03 02:18:38;;;;;;;3.78;2.00;;;11.30;95.40;;;;;;5013001;28;20124;-55
2021/08/03 02:21:04;;;;;;;3.35;1.65;;;11.30;95.40;;;;;;4995240;28;20112;-54
2021/08/03 02:23:29;;;;;;;5.32;1.50;;;11.30;95.20;;;;;;5014071;28;20169;-53
2021/08/03 02:25:55;;;;;;;3.60;1.65;;;11.30;95.30;;;;;;5012429;28;20041;-54
2021/08/03 02:28:21;;;;;;;4.80;1.70;;;11.30;95.00;;;;;;5012842;28;20038;-50
2021/08/03 02:30:49;;;;;;;3.40;1.65;;;11.30;94.90;;;;;;5012576;28;20042;-54
2021/08/03 02:33:17;;;;;;;2.67;1.77;;;11.30;94.80;;;;;;5013201;28;20042;-56
2021/08/03 02:35:55;;;;;;;4.78;2.00;;;11.20;94.80;;;;;;5012432;28;20068;-51
2021/08/03 02:38:28;;;;;;;6.88;2.20;;;11.20;94.90;;;;;;5013436;28;20442;-54
2021/08/03 02:40:56;;;;;;;4.57;1.85;;;11.20;94.90;;;;;;5010752;28;20096;-54
2021/08/03 02:43:24;;;;;;;3.17;2.00;;;11.20;95.10;;;;;;4994531;28;20088;-53
2021/08/03 02:45:51;;;;;;;3.03;1.60;;;11.20;95.00;;;;;;5012269;28;20042;-55
2021/08/03 02:48:21;;;;;;;5.88;2.10;;;11.20;95.00;;;;;;5012178;28;20045;-54
2021/08/03 02:50:47;;;;;;;4.78;1.85;;;11.30;95.20;;;;;;5001649;28;20194;-54
2021/08/03 02:53:44;;;;;;;3.45;1.73;;;11.30;95.40;;;;;;5005950;28;20041;-54
2021/08/03 02:56:14;;;;;;;4.32;1.83;;;11.30;95.40;;;;;;5012109;28;20069;-54
2021/08/03 02:58:53;;;;;;;2.60;1.70;;;11.20;95.40;;;;;;5012113;28;20549;-55
2021/08/03 03:01:21;;;;;;;3.97;1.80;;;11.30;95.40;;;;;;4992241;28;20045;-54
2021/08/03 03:04:00;;;;;;;3.17;1.70;;;11.30;95.30;;;;;;5012722;28;20132;-54
2021/08/03 03:06:28;;;;;;;2.40;1.60;;;11.30;95.30;;;;;;4994302;28;20121;-50
2021/08/03 03:08:55;;;;;;;4.07;1.52;;;11.30;95.20;;;;;;4978023;28;20387;-53
2021/08/03 03:11:27;;;;;;;3.55;1.63;;;11.30;95.10;;;;;;5011304;28;20069;-54
2021/08/03 03:13:57;;;;;;;;;;;11.20;95.00;;;;;;5011196;28;20046;-56
2021/08/03 03:16:26;;;;;;;2.30;1.42;;;11.20;95.00;;;;;;4993751;28;19921;-53
2021/08/03 03:18:55;;;;;;;4.88;1.80;;;11.20;94.90;;;;;;5012214;28;20483;-53
2021/08/03 03:21:23;;;;;;;2.05;1.40;;;11.10;94.90;;;;;;5011280;28;20481;-54
2021/08/03 03:23:52;;;;;;;3.83;1.50;;;11.10;94.80;;;;;;5012687;28;20066;-55
2021/08/03 03:26:23;;;;;;;3.10;1.63;;;11.10;94.80;;;;;;5006303;28;22213;-52
2021/08/03 03:28:54;;;;;;;3.80;1.47;;;11.00;94.80;;;;;;5006227;28;20124;-54
2021/08/03 03:31:26;;;;;;;4.82;1.58;;;11.00;94.90;;;;;;4994369;28;20057;-54
2021/08/03 03:33:57;;;;;;;3.10;1.75;;;11.00;95.00;;;;;;5012233;28;20053;-55
2021/08/03 03:36:28;;;;;;;4.30;2.13;;;11.00;95.10;;;;;;4995265;28;20499;-54
2021/08/03 03:38:57;;;;;;;3.53;1.50;;;11.00;95.30;;;;;;5012152;28;20058;-51
2021/08/03 03:41:28;;;;;;;3.72;1.80;;;11.00;95.30;;;;;;5010908;28;20549;-51
2021/08/03 03:43:54;;;;;;;3.35;1.85;;;11.00;95.30;;;;;;5011411;28;20056;-53
2021/08/03 03:46:30;;;;;;;2.30;1.73;;;11.00;95.30;;;;;;5011785;28;20050;-52
2021/08/03 03:49:08;;;;;;;5.28;1.70;;;11.00;95.30;;;;;;5013349;28;20050;-54
2021/08/03 03:51:40;;;;;;;6.00;1.95;;;11.00;95.10;;;;;;5011195;28;20703;-55
2021/08/03 03:54:08;;;;;;;3.42;1.85;;;11.00;95.10;;;;;;5008454;28;20116;-53
2021/08/03 03:56:42;;;;;;;2.80;1.80;;;11.00;95.10;;;;;;5009322;28;20048;-53
2021/08/03 03:59:10;;;;;;;3.83;1.90;;;11.00;95.10;;;;;;5010890;28;20414;-53
2021/08/03 04:01:37;;;;;;;2.83;1.90;;;11.00;95.20;;;;;;4993162;28;20046;-54
2021/08/03 04:04:06;;;;;;;5.20;1.98;;;10.90;95.20;;;;;;5010723;28;20073;-54
2021/08/03 04:06:35;;;;;;;4.25;1.88;;;10.90;95.20;;;;;;4992794;28;20050;-56
2021/08/03 04:09:04;;;;;;;4.20;1.90;;;11.00;95.20;;;;;;5011001;28;20041;-54
2021/08/03 04:11:31;;;;;;;2.85;1.83;;;11.00;95.20;;;;;;4991964;28;20107;-54
2021/08/03 04:13:57;;;;;;;2.83;1.60;;;11.00;95.30;;;;;;5008768;28;20133;-52
2021/08/03 04:16:23;;;;;;;2.70;1.70;;;11.00;95.40;;;;;;5006528;28;20045;-52
2021/08/03 04:18:48;;;;;;;3.05;1.75;;;11.10;95.60;;;;;;5009690;28;20042;-53
2021/08/03 04:21:15;;;;;;;4.97;2.17;;;11.10;95.90;;;;;;5009459;28;20061;-52
2021/08/03 04:23:42;;;;;;;5.15;2.05;;;11.10;95.90;;;;;;5010108;28;20042;-53
2021/08/03 04:26:10;;;;;;;6.50;1.90;;;11.20;96.10;;;;;;4962023;28;20037;-50
2021/08/03 04:28:36;;;;;;;5.40;1.92;;;11.20;96.00;;;;;;5012372;28;20038;-54
2021/08/03 04:31:01;;;;;;;4.60;2.03;;;11.20;96.10;;;;;;4994363;28;20038;-53
2021/08/03 04:33:28;;;;;;;4.10;2.00;;;11.20;96.10;;;;;;5009948;28;20060;-55
2021/08/03 04:35:53;;;;;;;3.97;1.77;;;11.20;96.10;;;;;;5011888;28;20056;-55
2021/08/03 04:38:19;;;;;;;4.32;2.17;;;11.30;96.10;;;;;;5010589;28;20422;-55
2021/08/03 04:40:45;;;;;;;4.30;1.98;;;11.30;96.00;;;;;;5014248;28;20042;-55
2021/08/03 04:43:12;;;;;;;2.75;1.95;;;11.30;95.90;;;;;;5014191;28;20065;-54
2021/08/03 04:45:42;;;;;;;2.50;1.90;;;11.30;95.90;;;;;;5009796;28;20046;-54
2021/08/03 04:48:08;;;;;;;4.35;2.03;;;11.30;95.80;;;;;;5014334;28;20292;-54
2021/08/03 04:50:34;;;;;;;4.43;2.38;;;11.40;95.90;;;;;;5012551;28;20052;-55
2021/08/03 04:52:59;;;;;;;3.13;2.13;;;11.40;96.10;;;;;;5012820;28;20057;-53
2021/08/03 04:55:25;;;;;;;3.08;1.90;;;11.40;96.00;;;;;;5014142;28;20411;-54
2021/08/03 04:57:52;;;;;;;2.83;1.80;;;11.40;96.10;;;;;;5011128;28;20405;-54
2021/08/03 05:00:18;;;;;;;4.68;2.08;;;11.50;96.20;;;;;;4989988;28;20034;-54
2021/08/03 05:02:45;;;;;;;5.15;1.98;;;11.50;96.20;;;;;;5013617;28;20441;-53
2021/08/03 05:05:11;;;;;;;6.72;1.75;;;11.60;96.50;;;;;;5013382;28;20057;-52
2021/08/03 05:07:52;;;;;;;3.85;2.03;;;11.60;96.30;;;;;;5011782;28;20184;-54
2021/08/03 05:10:19;;;;;;;5.00;2.10;;;11.60;96.30;;;;;;4998105;28;20053;-53
2021/08/03 05:12:47;;;;;;;6.63;2.42;;;11.60;96.30;;;;;;5013929;28;20125;-55
2021/08/03 05:15:13;;;;;;;4.30;2.65;;;11.60;96.40;;;;;;5007934;28;20046;-52
2021/08/03 05:17:43;;;;;;;7.60;3.35;;;11.70;96.50;;;;;;5013048;28;20057;-53
2021/08/03 05:20:10;;;;;;;6.40;3.20;;;11.70;96.60;;;;;;5007531;28;20048;-54
2021/08/03 05:22:35;;;;;;;5.70;3.47;;;11.70;96.60;;;;;;5013093;28;20046;-53
2021/08/03 05:25:03;;;;;;;9.95;3.42;;;11.80;96.70;;;;;;5006411;28;20405;-54
2021/08/03 05:27:29;;;;;;;7.68;3.35;;;11.90;96.60;;;;;;5006166;28;20061;-54
2021/08/03 05:30:22;;;;;;;8.32;3.38;;;12.00;96.50;;;;;;5007361;28;20038;-54
2021/08/03 05:33:00;;;;;;;8.95;3.38;;;12.00;96.50;;;;;;4972452;28;20046;-55
2021/08/03 05:35:26;;;;;;;8.90;3.65;;;12.10;96.40;;;;;;5012365;28;20132;-53
2021/08/03 05:37:52;;;;;;;9.73;3.13;;;12.20;96.40;;;;;;5012404;28;20057;-54
2021/08/03 05:40:20;;;;;;;7.07;3.13;;;12.20;96.40;;;;;;5012091;28;20037;-54
2021/08/03 05:42:50;;;;;;;8.48;3.22;;;12.30;96.40;;;;;;5009825;28;20045;-52
2021/08/03 05:45:18;;;;;;;8.30;3.25;;;12.40;96.40;;;;;;4980476;28;20133;-54
2021/08/03 05:47:44;;;;;;;6.60;3.22;;;12.50;96.40;;;;;;5005854;28;20069;-55
2021/08/03 05:50:11;;;;;;;7.28;3.63;;;12.60;96.40;;;;;;5013247;28;20046;-54
2021/08/03 05:52:38;;;;;;;5.20;3.35;;;12.70;96.80;;;;;;5011371;28;20041;-55
2021/08/03 05:55:04;;;;;;;6.75;3.38;;;12.80;96.70;;;;;;5012754;28;20045;-56
2021/08/03 05:57:31;;;;;;;5.57;3.40;;;12.80;96.80;;;;;;5011145;28;20403;-56
2021/08/03 05:59:57;;;;;;;5.55;2.90;;;13.00;96.70;;;;;;5012465;28;20064;-54
2021/08/03 06:02:23;;;;;;;6.40;3.25;;;13.10;96.70;;;;;;5012398;28;20045;-53
2021/08/03 06:04:49;;;;;;;5.55;3.38;;;13.20;96.60;;;;;;5001561;28;20056;-53
2021/08/03 06:07:17;;;;;;;4.68;3.15;;;13.30;96.50;;;;;;5012612;28;20052;-56
2021/08/03 06:09:43;;;;;;;6.20;2.90;;;13.40;96.60;;;;;;5012563;28;20042;-55
2021/08/03 06:12:10;;;;;;;7.25;3.00;;;13.50;96.60;;;;;;5012056;28;20223;-55
2021/08/03 06:14:43;;;;;;;6.80;2.47;;;13.60;96.60;;;;;;5012834;28;20046;-54
2021/08/03 06:17:13;;;;;;;7.13;3.17;;;13.70;96.50;;;;;;4989778;28;20050;-55
2021/08/03 06:19:49;;;;;;;6.65;2.80;;;14.00;96.20;;;;;;5012689;28;20042;-55
2021/08/03 06:22:16;;;;;;;5.10;2.92;;;14.20;95.90;;;;;;5011939;28;20049;-52
2021/08/03 06:24:44;;;;;;;4.63;2.78;;;14.30;95.70;;;;;;5012633;28;20056;-54
2021/08/03 06:27:16;;;;;;;8.43;2.53;;;14.30;95.70;;;;;;5007784;28;20422;-55
2021/08/03 06:29:45;;;;;;;5.05;2.60;;;14.30;95.70;;;;;;5007050;28;20046;-54
2021/08/03 06:32:15;;;;;;;5.35;2.10;;;14.30;95.80;;;;;;5012262;28;20509;-52
2021/08/03 06:34:43;;;;;;;4.03;2.75;;;14.30;95.80;;;;;;5012408;28;20261;-51
2021/08/03 06:37:13;;;;;;;4.00;2.78;;;14.30;95.80;;;;;;5012566;28;20461;-53
2021/08/03 06:39:40;;;;;;;7.82;3.35;;;14.30;95.90;;;;;;4992002;28;20464;-54
2021/08/03 06:42:24;;;;;;;5.70;3.00;;;14.40;95.80;;;;;;5009803;28;20042;-54
2021/08/03 06:45:21;;;;;;;6.13;3.25;;;14.40;95.70;;;;;;5010060;28;20064;-52
2021/08/03 06:47:56;;;;;;;4.75;2.80;;;14.50;95.70;;;;;;4982728;28;20406;-53
2021/08/03 06:50:26;;;;;;;8.70;3.35;;;14.60;95.70;;;;;;5012438;28;20463;-54
2021/08/03 06:52:53;;;;;;;6.80;3.33;;;14.60;95.60;;;;;;5011030;28;20037;-53
2021/08/03 06:55:27;;;;;;;5.20;3.10;;;14.70;95.60;;;;;;5004741;28;20509;-54
2021/08/03 06:58:03;;;;;;;5.70;3.17;;;14.70;95.50;;;;;;5010405;28;20038;-51
2021/08/03 07:00:38;;;;;;;6.90;3.30;;;14.80;95.40;;;;;;5007927;28;20034;-55
2021/08/03 07:03:07;;;;;;;7.90;3.13;;;14.80;95.30;;;;;;5010782;28;20077;-52
2021/08/03 07:05:33;;;;;;;5.55;2.60;;;14.90;95.00;;;;;;5008198;28;20077;-56
2021/08/03 07:07:59;;;;;;;6.20;2.70;;;14.90;94.90;;;;;;5010600;28;20402;-54
2021/08/03 07:10:27;;;;;;;5.80;2.30;;;14.90;94.70;;;;;;5009353;28;20068;-54
2021/08/03 07:12:55;;;;;;;5.25;2.60;;;15.00;94.60;;;;;;5009448;28;20076;-51
2021/08/03 07:15:24;;;;;;;5.40;2.90;;;15.00;94.50;;;;;;5009541;28;20153;-54
2021/08/03 07:17:50;;;;;;;5.13;2.28;;;15.00;94.50;;;;;;5010403;28;20070;-53
2021/08/03 07:20:17;;;;;;;5.03;2.20;;;15.10;94.40;;;;;;5009355;28;20104;-53
2021/08/03 07:22:44;;;;;;;3.40;1.52;;;15.30;94.10;;;;;;4974785;28;20088;-54
2021/08/03 07:25:10;;;;;;;3.72;1.80;;;15.30;93.40;;;;;;5011795;28;20052;-54
2021/08/03 07:27:36;;;;;;;2.40;1.65;;;15.40;93.30;;;;;;5010524;28;20049;-54
2021/08/03 07:30:08;;;;;;;2.92;1.58;;;15.60;93.00;;;;;;5011467;28;20107;-51
2021/08/03 07:32:36;;;;;;;3.45;1.95;;;15.70;92.50;;;;;;5009840;28;20444;-53
2021/08/03 07:35:08;;;;;;;5.13;1.80;;;15.80;92.20;;;;;;5011661;28;20034;-55
2021/08/03 07:37:38;;;;;;;3.75;2.10;;;15.90;92.10;;;;;;5010750;28;20053;-56
2021/08/03 07:40:11;;;;;;;4.55;2.00;;;16.00;91.10;;;;;;5011211;28;20037;-55
2021/08/03 07:42:38;;;;;;;2.75;1.92;;;16.10;91.20;;;;;;5010077;28;20042;-55
2021/08/03 07:45:05;;;;;;;6.75;2.38;;;16.30;91.30;;;;;;5008821;28;20103;-52
2021/08/03 07:47:33;;;;;;;3.55;1.70;;;16.40;90.70;;;;;;5011114;28;20042;-55
2021/08/03 07:50:03;;;;;;;3.15;1.50;;;16.50;88.80;;;;;;5011988;28;20046;-56
2021/08/03 07:52:28;;;;;;;2.78;1.45;;;16.60;88.80;;;;;;5007778;28;20046;-56
2021/08/03 07:54:55;;;;;;;6.70;1.67;;;16.70;86.90;;;;;;5011096;28;20049;-55
2021/08/03 07:57:22;;;;;;;4.95;1.48;;;16.80;83.50;;;;;;5008575;28;20447;-53
2021/08/03 07:59:53;;;;;;;3.80;1.60;;;16.90;83.40;;;;;;5009735;28;20487;-52
2021/08/03 08:02:21;;;;;;;2.53;1.50;;;17.00;83.60;;;;;;5010884;28;20502;-51
2021/08/03 08:04:46;;;;;;;2.85;1.60;;;17.00;84.50;;;;;;5009926;28;20048;-56
2021/08/03 08:07:12;;;;;;;3.33;2.10;;;17.10;85.10;;;;;;5010676;28;20034;-54
2021/08/03 08:09:40;;;;;;;4.80;2.28;;;17.20;83.80;;;;;;5010577;28;20042;-57
2021/08/03 08:12:06;;;;;;;5.10;2.17;;;17.20;84.50;;;;;;4991670;28;20542;-55
2021/08/03 08:14:34;;;;;;;4.40;1.50;;;17.30;85.90;;;;;;4995319;28;20038;-56
2021/08/03 08:17:00;;;;;;;3.70;1.98;;;17.40;85.10;;;;;;5014801;28;20033;-56
2021/08/03 08:19:29;;;;;;;3.17;1.83;;;17.50;84.20;;;;;;5013535;28;20467;-54
2021/08/03 08:21:55;;;;;;;2.95;1.73;;;17.40;84.70;;;;;;4997985;28;20085;-54
2021/08/03 08:24:20;;;;;;;3.80;2.10;;;17.70;84.10;;;;;;5009075;28;20061;-56
2021/08/03 08:26:47;;;;;;;3.03;1.50;;;17.70;84.30;;;;;;5006135;28;20046;-55
2021/08/03 08:29:16;;;;;;;2.20;1.40;;;17.80;82.80;;;;;;5011664;28;20054;-55
2021/08/03 08:31:45;;;;;;;2.55;1.23;;;17.90;81.90;;;;;;5014586;28;20056;-53
2021/08/03 08:34:12;;;;;;;1.38;1.15;;;18.00;79.90;;;;;;5016014;28;20046;-57
2021/08/03 08:36:38;;;;;;;2.97;1.10;;;18.10;79.70;;;;;;5014799;28;20049;-54
2021/08/03 08:39:06;;;;;;;6.53;1.50;;;18.10;76.70;;;;;;4995401;28;20033;-54
2021/08/03 08:41:35;;;;;;;2.63;1.30;;;18.10;78.40;;;;;;5015334;28;20468;-54
2021/08/03 08:44:06;;;;;;;3.13;1.10;;;18.20;77.50;;;;;;5015088;28;20065;-56
2021/08/03 08:46:34;;;;;;;2.57;1.20;;;18.20;75.80;;;;;;5015411;28;20041;-55
2021/08/03 08:49:04;;;;;;;1.95;1.30;;;18.30;76.10;;;;;;5013011;28;20104;-54
2021/08/03 08:51:31;;;;;;;3.15;1.02;;;18.30;76.00;;;;;;5010288;28;20044;-56
2021/08/03 08:54:00;;;;;;;2.97;1.30;;;18.40;77.10;;;;;;5012176;28;20096;-53
2021/08/03 08:56:29;;;;;;;3.50;1.30;;;18.50;76.60;;;;;;5014796;28;20042;-53
2021/08/03 08:58:55;;;;;;;2.45;1.10;;;18.70;75.00;;;;;;5012932;28;20057;-57
2021/08/03 09:01:22;;;;;;;4.40;1.10;;;18.70;75.40;;;;;;5013926;28;20049;-54
2021/08/03 09:03:52;;;;;;;2.53;1.30;;;18.80;73.90;;;;;;5008256;28;20100;-56
2021/08/03 09:06:20;;;;;;;4.00;1.23;;;18.80;73.40;;;;;;4979544;28;20489;-55
2021/08/03 09:08:50;;;;;;;3.00;1.20;;;18.90;72.60;;;;;;5014312;28;20045;-57
2021/08/03 09:11:21;;;;;;;2.55;1.40;;;18.90;73.30;;;;;;4996214;28;20042;-55
2021/08/03 09:14:08;;;;;;;2.10;1.23;;;19.00;71.10;;;;;;4997150;28;20042;-56
2021/08/03 09:16:48;;;;;;;3.85;1.20;;;19.20;69.50;;;;;;4997062;28;20110;-55
2021/08/03 09:19:35;;;;;;;2.08;1.30;;;19.30;70.80;;;;;;5014091;28;20048;-55
2021/08/03 09:22:23;;;;;;;3.35;1.35;;;19.40;64.60;;;;;;5002946;28;20118;-55
2021/08/03 09:24:51;;;;;;;1.88;1.20;;;19.40;65.50;;;;;;4995496;28;20387;-55
2021/08/03 09:27:37;;;;;;;6.47;1.50;;;19.30;68.60;;;;;;4983800;28;20058;-55
2021/08/03 09:30:12;;;;;;;3.80;1.40;;;19.40;68.50;;;;;;5014412;28;20417;-56
2021/08/03 09:32:40;;;;;;;;;;;19.50;69.20;;;;;;4981002;28;20502;-56
2021/08/03 09:35:14;;;;;;;5.45;1.70;;;19.40;70.70;;;;;;4996107;28;20362;-56
2021/08/03 09:37:41;;;;;;;3.30;1.40;;;19.40;71.40;;;;;;4999073;28;20046;-54
2021/08/03 09:40:21;;;;;;;3.08;1.45;;;19.40;69.20;;;;;;5011289;28;20034;-54
2021/08/03 09:43:28;;;;;;;4.90;1.40;;;19.30;70.30;;;;;;5013375;28;20049;-55
2021/08/03 09:45:57;;;;;;;1.88;1.27;;;19.30;65.90;;;;;;4975683;28;20120;-56
2021/08/03 09:48:26;;;;;;;4.15;1.20;;;19.10;67.30;;;;;;5013692;28;20104;-55
2021/08/03 09:51:12;;;;;;;4.90;1.50;;;18.90;70.10;;;;;;5012210;28;20038;-55
2021/08/03 09:53:50;;;;;;;2.53;1.60;;;18.80;71.80;;;;;;4978183;28;20045;-56
2021/08/03 09:56:26;;;;;;;3.53;1.40;;;18.70;73.70;;;;;;5004870;28;20181;-50
2021/08/03 09:58:53;;;;;;;3.38;1.30;;;18.60;74.10;;;;;;5011139;28;20477;-54
2021/08/03 10:01:29;;;;;;;7.32;1.75;;;18.60;70.60;;;;;;5012431;28;20038;-53
2021/08/03 10:04:03;;;;;;;3.38;1.45;;;18.60;68.30;;;;;;5014174;28;20029;-54
2021/08/03 10:06:31;;;;;;;5.45;1.50;;;18.50;68.60;;;;;;4995380;28;20038;-57
2021/08/03 10:08:58;;;;;;;4.90;1.65;;;18.40;71.40;;;;;;4976690;28;20109;-57
2021/08/03 10:11:25;;;;;;;3.90;1.23;;;18.40;69.20;;;;;;5013160;28;20392;-58
2021/08/03 10:13:53;;;;;;;1.67;1.27;;;18.30;71.60;;;;;;5010058;28;20077;-58
2021/08/03 10:16:35;;;;;;;2.92;1.55;;;18.40;73.00;;;;;;4973962;28;20034;-58
2021/08/03 10:19:26;;;;;;;4.60;1.73;;;18.30;74.00;;;;;;4902472;29;20080;-52
2021/08/03 10:22:27;;;;;;;3.35;1.48;;;18.40;74.40;;;;;;5002579;28;20383;-51
2021/08/03 10:25:27;;;;;;;3.80;1.50;;;18.40;74.30;;;;;;5007089;28;20057;-52
2021/08/03 10:27:53;;;;;;;4.22;1.55;;;18.60;70.20;;;;;;4985141;28;20104;-55
2021/08/03 10:30:27;;;;;;;3.10;1.50;;;18.80;67.40;;;;;;5011565;28;20038;-54
2021/08/03 10:32:59;;;;;;;2.13;1.33;;;18.90;69.30;;;;;;5008262;28;20030;-48
2021/08/03 10:35:40;;;;;;;3.17;1.70;;;19.10;70.40;;;;;;5011579;28;20507;-51
2021/08/03 10:38:19;;;;;;;6.50;1.60;;;19.30;69.10;;;;;;4979083;28;20189;-56
2021/08/03 10:40:48;;;;;;;5.10;1.33;;;19.50;67.10;;;;;;4988260;28;20065;-54
2021/08/03 10:43:18;;;;;;;4.43;1.60;;;19.60;65.70;;;;;;5009448;28;20051;-52
2021/08/03 10:45:45;;;;;;;8.35;1.60;;;19.50;65.70;;;;;;5012417;28;20048;-52
2021/08/03 10:48:37;;;;;;;3.22;1.42;;;19.30;68.80;;;;;;5011880;28;20049;-52
2021/08/03 10:51:17;;;;;;;3.88;1.50;;;19.30;71.30;;;;;;4999082;28;20045;-52
2021/08/03 10:54:09;;;;;;;1.75;1.40;;;19.40;65.30;;;;;;5008681;28;20092;-57
2021/08/03 10:56:57;;;;;;;3.60;1.60;;;19.30;67.30;;;;;;5009210;28;20071;-57
2021/08/03 10:59:34;;;;;;;5.47;1.50;;;19.20;67.30;;;;;;5008720;28;20068;-56
2021/08/03 11:02:06;;;;;;;5.32;1.70;;;19.10;67.70;;;;;;5008892;28;20092;-56
2021/08/03 11:04:42;;;;;;;1.95;1.35;;;19.10;67.10;;;;;;4993741;28;20414;-55
2021/08/03 11:07:26;;;;;;;4.72;1.50;;;18.90;68.30;;;;;;5007122;28;20057;-57
2021/08/03 11:09:57;;;;;;;2.72;1.42;;;18.90;69.90;;;;;;5007357;28;20048;-57
2021/08/03 11:12:44;;;;;;;3.47;1.50;;;18.80;70.10;;;;;;5007937;28;20390;-57
2021/08/03 11:15:22;;;;;;;3.33;1.55;;;18.80;69.40;;;;;;5007053;28;20049;-57
2021/08/03 11:17:55;;;;;;;3.25;1.80;;;18.60;70.10;;;;;;5008865;28;20046;-56
2021/08/03 11:20:41;;;;;;;2.08;1.20;;;18.70;70.10;;;;;;5009916;28;20065;-54
2021/08/03 11:23:13;;;;;;;2.50;1.30;;;18.60;71.30;;;;;;5007540;28;20034;-54
2021/08/03 11:25:40;;;;;;;3.08;1.50;;;18.60;71.70;;;;;;5009272;28;20037;-56
2021/08/03 11:28:10;;;;;;;5.95;1.55;;;18.70;71.80;;;;;;5011252;28;20049;-55
2021/08/03 11:30:38;;;;;;;2.55;1.40;;;18.80;70.80;;;;;;5006685;28;20112;-55
2021/08/03 11:33:14;;;;;;;3.53;1.95;;;18.80;69.50;;;;;;4990915;28;20705;-56
2021/08/03 11:35:41;;;;;;;3.78;1.50;;;18.80;70.60;;;;;;5008886;28;20132;-54
2021/08/03 11:38:09;;;;;;;5.03;1.60;;;18.90;70.40;;;;;;5008531;28;20054;-57
2021/08/03 11:40:39;;;;;;;3.08;1.30;;;18.90;68.40;;;;;;5007458;28;20038;-57
2021/08/03 11:43:08;;;;;;;2.47;1.70;;;18.90;69.70;;;;;;4994186;28;20033;-56
2021/08/03 11:45:36;;;;;;;3.72;1.50;;;18.90;70.60;;;;;;5009672;28;20056;-55
2021/08/03 11:48:05;;;;;;;1.88;1.50;;;18.90;70.90;;;;;;5009499;28;20041;-54
2021/08/03 11:50:39;;;;;;;4.05;1.60;;;19.00;71.10;;;;;;5014736;28;20041;-55
2021/08/03 11:53:14;;;;;;;4.90;1.90;;;19.00;71.10;;;;;;4992356;28;20438;-49
2021/08/03 11:55:43;;;;;;;3.20;1.55;;;19.00;71.50;;;;;;4987980;28;20362;-49
2021/08/03 11:58:13;;;;;;;3.70;1.30;;;19.00;71.40;;;;;;5010894;28;20361;-54
2021/08/03 12:00:59;;;;;;;3.67;1.60;;;19.00;69.60;;;;;;4981643;28;21684;-57
2021/08/03 12:03:31;;;;;;;3.97;1.80;;;19.00;69.50;;;;;;5009010;28;20045;-55
2021/08/03 12:06:01;;;;;;;2.80;1.65;;;19.00;69.30;;;;;;4995514;28;20037;-55
2021/08/03 12:08:39;;;;;;;3.42;1.50;;;19.00;70.30;;;;;;4994997;28;20056;-56
2021/08/03 12:11:06;;;;;;;3.78;1.70;;;19.00;70.50;;;;;;5005053;28;20399;-56
2021/08/03 12:13:34;;;;;;;4.25;1.60;;;19.10;70.80;;;;;;4974653;28;20177;-57
2021/08/03 12:16:02;;;;;;;3.33;1.65;;;19.10;70.90;;;;;;5013996;28;20049;-56
2021/08/03 12:18:40;;;;;;;4.35;1.63;;;19.10;70.90;;;;;;5011679;28;20060;-57
2021/08/03 12:21:08;;;;;;;5.20;2.05;;;19.20;70.90;;;;;;5012197;28;20048;-56
2021/08/03 12:23:38;;;;;;;3.78;2.20;;;19.20;71.10;;;;;;5011262;28;20065;-55
2021/08/03 12:26:07;;;;;;;3.33;1.92;;;19.20;71.60;;;;;;5014562;28;20080;-52
2021/08/03 12:28:38;;;;;;;5.93;2.20;;;19.30;72.30;;;;;;5016147;28;20038;-53
2021/08/03 12:31:41;;;;;;;2.97;1.80;;;19.30;72.80;;;;;;5008687;28;20041;-52
2021/08/03 12:34:18;;;;;;;3.85;1.90;;;19.30;72.10;;;;;;4995952;28;20122;-53
2021/08/03 12:36:48;;;;;;;3.38;1.90;;;19.30;72.80;;;;;;5015494;28;20073;-55
2021/08/03 12:39:37;;;;;;;5.82;2.00;;;19.30;73.30;;;;;;5012532;28;20084;-57
2021/08/03 12:44:45;;;;;;;6.13;2.03;;;19.30;72.80;;;;;;5015732;28;20041;-52
2021/08/03 12:47:20;;;;;;;3.65;1.80;;;19.30;73.20;;;;;;4997788;28;20053;-56
2021/08/03 12:49:49;;;;;;;3.50;2.00;;;19.30;73.10;;;;;;5017003;28;20435;-51
2021/08/03 12:52:20;;;;;;;5.10;2.15;;;19.30;73.30;;;;;;5014837;28;20046;-49
2021/08/03 12:55:07;;;;;;;6.18;2.20;;;19.40;73.00;;;;;;4981743;28;20100;-50
2021/08/03 12:57:48;;;;;;;4.47;2.03;;;19.30;71.90;;;;;;5014308;28;20045;-51
2021/08/03 13:00:37;;;;;;;5.57;2.00;;;19.30;73.50;;;;;;5013239;28;20037;-55
2021/08/03 13:03:11;;;;;;;5.53;1.83;;;19.30;73.00;;;;;;5007440;28;20030;-56
2021/08/03 13:05:40;;;;;;;6.75;2.40;;;19.30;73.40;;;;;;5014818;28;20049;-56
2021/08/03 13:08:07;;;;;;;4.93;2.28;;;19.30;73.90;;;;;;4991223;28;20514;-56
2021/08/03 13:10:34;;;;;;;5.22;2.38;;;19.30;73.30;;;;;;5013605;28;20617;-56
2021/08/03 13:13:01;;;;;;;4.55;2.13;;;19.20;73.00;;;;;;4996179;28;20522;-55